createdAt,value
2019-04-06T00:03:52.031Z,12.00
2019-04-06T00:08:55.326Z,12.00
2019-04-06T00:13:59.155Z,12.00
2019-04-06T00:19:02.991Z,12.10
2019-04-06T00:24:06.810Z,12.10
2019-04-06T00:29:10.955Z,12.10
2019-04-06T00:34:15.393Z,12.20
2019-04-06T00:39:19.521Z,12.20
2019-04-06T00:44:23.362Z,12.20
2019-04-06T00:49:27.182Z,12.20
2019-04-06T00:54:31.312Z,12.10
2019-04-06T00:59:35.161Z,12.00
2019-04-06T01:04:39.280Z,12.00
2019-04-06T01:09:43.110Z,12.00
2019-04-06T01:14:46.936Z,12.00
2019-04-06T01:19:51.070Z,12.00
2019-04-06T01:24:54.897Z,12.00
2019-04-06T01:29:59.036Z,12.00
2019-04-06T01:35:02.870Z,12.00
2019-04-06T01:40:07.620Z,12.00
2019-04-06T01:45:11.436Z,12.10
2019-04-06T01:50:15.262Z,12.10
2019-04-06T01:55:19.093Z,12.10
2019-04-06T02:00:22.917Z,12.10
2019-04-06T02:05:27.056Z,12.20
2019-04-06T02:10:30.881Z,12.10
2019-04-06T02:15:34.706Z,12.10
2019-04-06T02:20:38.539Z,12.20
2019-04-06T02:25:42.685Z,12.10
2019-04-06T02:31:03.395Z,12.10
2019-04-06T02:36:21.056Z,12.20
2019-04-06T02:41:43.093Z,12.10
2019-04-06T02:46:47.135Z,12.10
2019-04-06T02:51:51.275Z,12.10
2019-04-06T02:56:55.097Z,12.00
2019-04-06T03:01:58.926Z,12.00
2019-04-06T03:07:02.755Z,12.00
2019-04-06T03:12:06.583Z,12.00
2019-04-06T03:17:10.723Z,12.00
2019-04-06T03:22:14.855Z,12.00
2019-04-06T03:27:18.778Z,12.00
2019-04-06T03:32:22.819Z,11.90
2019-04-06T03:37:26.639Z,11.90
2019-04-06T03:42:30.466Z,11.90
2019-04-06T03:47:34.302Z,11.80
2019-04-06T03:52:38.432Z,11.80
2019-04-06T03:57:42.566Z,11.70
2019-04-06T04:02:46.401Z,11.70
2019-04-06T04:07:50.220Z,11.60
2019-04-06T04:12:54.355Z,11.60
2019-04-06T04:17:58.188Z,11.60
2019-04-06T04:23:02.046Z,11.60
2019-04-06T04:28:06.155Z,11.60
2019-04-06T04:33:09.976Z,11.60
2019-04-06T04:38:13.809Z,11.60
2019-04-06T04:43:17.943Z,11.60
2019-04-06T04:48:21.763Z,11.60
2019-04-06T04:53:25.594Z,11.50
2019-04-06T04:58:29.426Z,11.50
2019-04-06T05:03:33.455Z,11.60
2019-04-06T05:08:37.387Z,11.50
2019-04-06T05:13:41.268Z,11.50
2019-04-06T05:18:45.349Z,11.50
2019-04-06T05:23:50.744Z,11.50
2019-04-06T05:28:54.536Z,11.50
2019-04-06T05:33:58.472Z,11.50
2019-04-06T05:39:02.521Z,11.50
2019-04-06T05:44:06.641Z,11.40
2019-04-06T05:49:10.460Z,11.40
2019-04-06T05:54:14.361Z,11.30
2019-04-06T05:59:18.424Z,11.40
2019-04-06T06:04:22.254Z,11.40
2019-04-06T06:09:26.084Z,11.40
2019-04-06T06:14:29.908Z,11.50
2019-04-06T06:19:33.905Z,11.60
2019-04-06T06:24:37.868Z,11.70
2019-04-06T06:29:41.696Z,11.60
2019-04-06T06:34:45.525Z,11.60
2019-04-06T06:39:49.357Z,11.60
2019-04-06T06:44:53.491Z,11.60
2019-04-06T06:49:57.626Z,11.70
2019-04-06T06:55:01.358Z,11.90
2019-04-06T07:00:05.987Z,12.10
2019-04-06T07:05:09.704Z,12.30
2019-04-06T07:10:13.447Z,12.50
2019-04-06T07:15:17.126Z,12.60
2019-04-06T07:20:20.872Z,12.70
2019-04-06T07:25:24.815Z,12.70
2019-04-06T07:30:28.653Z,12.80
2019-04-06T07:35:32.615Z,12.90
2019-04-06T07:40:36.347Z,13.10
2019-04-06T07:45:40.115Z,13.40
2019-04-06T07:50:43.889Z,13.60
2019-04-06T07:55:47.577Z,13.70
2019-04-06T08:00:51.353Z,13.80
2019-04-06T08:05:55.438Z,13.90
2019-04-06T08:10:59.317Z,13.90
2019-04-06T08:16:03.376Z,14.00
2019-04-06T08:21:07.446Z,14.10
2019-04-06T08:26:11.275Z,14.10
2019-04-06T08:31:15.141Z,14.00
2019-04-06T08:36:19.011Z,14.00
2019-04-06T08:41:23.083Z,14.30
2019-04-06T08:46:26.819Z,14.90
2019-04-06T08:51:30.520Z,15.60
2019-04-06T08:56:34.547Z,16.50
2019-04-06T09:01:38.369Z,17.10
2019-04-06T09:06:42.197Z,17.60
2019-04-06T09:11:46.070Z,18.30
2019-04-06T09:16:50.473Z,18.80
2019-04-06T09:21:54.350Z,19.20
2019-04-06T09:26:58.437Z,19.50
2019-04-06T09:32:02.260Z,19.80
2019-04-06T09:37:06.399Z,20.00
2019-04-06T09:42:10.234Z,19.90
2019-04-06T09:47:15.684Z,19.70
2019-04-06T09:52:37.393Z,19.40
2019-04-06T09:57:48.748Z,19.10
2019-04-06T10:02:54.105Z,19.00
2019-04-06T10:08:05.580Z,18.90
2019-04-06T10:13:16.812Z,19.00
2019-04-06T10:18:34.167Z,19.20
2019-04-06T10:23:39.524Z,19.30
2019-04-06T10:28:51.063Z,19.50
2019-04-06T10:34:08.944Z,19.60
2019-04-06T10:39:20.274Z,19.60
2019-04-06T10:44:37.844Z,19.40
2019-04-06T10:49:49.396Z,19.40
2019-04-06T10:55:04.238Z,19.30
2019-04-06T11:00:25.479Z,19.00
2019-04-06T11:05:42.506Z,18.70
2019-04-06T11:10:51.107Z,18.50
2019-04-06T11:15:56.728Z,18.20
2019-04-06T11:21:18.060Z,18.10
2019-04-06T11:26:26.500Z,18.00
2019-04-06T11:31:37.979Z,17.90
2019-04-06T11:36:59.650Z,17.80
2019-04-06T11:42:05.204Z,17.60
2019-04-06T11:47:13.779Z,17.40
2019-04-06T11:52:31.141Z,17.20
2019-04-06T11:57:42.299Z,16.90
2019-04-06T12:02:50.132Z,16.70
2019-04-06T12:07:55.486Z,16.60
2019-04-06T12:13:06.684Z,16.50
2019-04-06T12:18:12.359Z,16.40
2019-04-06T12:23:36.115Z,16.20
2019-04-06T12:28:41.827Z,16.10
2019-04-06T12:33:53.335Z,16.00
2019-04-06T12:39:14.121Z,16.00
2019-04-06T12:44:37.851Z,15.80
2019-04-06T12:49:46.592Z,15.50
2019-04-06T12:54:54.640Z,15.40
2019-04-06T13:00:06.187Z,15.30
2019-04-06T13:05:20.510Z,15.30
2019-04-06T13:10:25.871Z,15.20
2019-04-06T13:15:36.760Z,15.10
2019-04-06T13:20:58.779Z,14.90
2019-04-06T13:26:07.062Z,14.80
2019-04-06T13:31:21.322Z,14.60
2019-04-06T13:36:32.936Z,14.30
2019-04-06T13:41:50.273Z,13.80
2019-04-06T13:47:12.548Z,13.10
2019-04-06T13:52:18.521Z,12.50
2019-04-06T13:57:27.236Z,12.10
2019-04-06T14:02:38.465Z,12.10
2019-04-06T14:07:59.184Z,12.20
2019-04-06T14:13:16.923Z,12.30
2019-04-06T14:18:38.789Z,12.40
2019-04-06T14:23:50.819Z,12.40
2019-04-06T14:29:05.492Z,12.30
2019-04-06T14:34:27.278Z,12.20
2019-04-06T14:39:48.626Z,12.20
2019-04-06T14:44:59.708Z,12.20
2019-04-06T14:50:07.521Z,12.20
2019-04-06T14:55:24.576Z,12.30
2019-04-06T15:00:29.857Z,12.40
2019-04-06T15:05:52.424Z,12.40
2019-04-06T15:10:59.815Z,12.50
2019-04-06T15:16:05.085Z,12.40
2019-04-06T15:21:13.358Z,12.40
2019-04-06T15:26:18.663Z,12.40
2019-04-06T15:31:24.544Z,12.40
2019-04-06T15:36:33.269Z,12.40
2019-04-06T15:41:54.750Z,12.40
2019-04-06T15:47:03.323Z,12.30
2019-04-06T15:52:12.559Z,12.30
2019-04-06T15:57:18.547Z,12.30
2019-04-06T16:02:38.974Z,12.30
2019-04-06T16:08:00.766Z,12.30
2019-04-06T16:13:21.333Z,12.20
2019-04-06T16:18:43.686Z,12.10
2019-04-06T16:24:01.711Z,11.90
2019-04-06T16:29:04.617Z,11.90
2019-04-06T16:34:09.937Z,11.70
2019-04-06T16:39:18.404Z,11.70
2019-04-06T16:44:29.408Z,11.70
2019-04-06T16:49:46.946Z,11.60
2019-04-06T16:55:01.258Z,11.70
2019-04-06T17:00:18.496Z,11.70
2019-04-06T17:05:23.829Z,11.70
2019-04-06T17:10:29.186Z,11.70
2019-04-06T17:15:43.627Z,11.70
2019-04-06T17:20:51.995Z,11.70
2019-04-06T17:26:09.937Z,11.80
2019-04-06T17:31:33.432Z,11.80
2019-04-06T17:36:39.101Z,11.70
2019-04-06T17:42:00.525Z,11.60
2019-04-06T17:47:22.102Z,11.60
2019-04-06T17:52:43.989Z,11.60
2019-04-06T17:58:01.455Z,11.60
2019-04-06T18:03:07.032Z,11.70
2019-04-06T18:08:12.416Z,11.70
2019-04-06T18:13:35.730Z,11.80
2019-04-06T18:18:39.460Z,11.80
2019-04-06T18:23:43.787Z,11.80
2019-04-06T18:28:47.546Z,13.90
2019-04-06T18:33:51.274Z,11.90
2019-04-06T18:39:09.367Z,11.90
2019-04-06T18:44:13.107Z,11.90
2019-04-06T18:49:17.061Z,11.90
2019-04-06T18:54:20.997Z,11.90
2019-04-06T18:59:24.864Z,11.90
2019-04-06T19:04:29.252Z,11.90
2019-04-06T19:09:33.789Z,11.90
2019-04-06T19:14:37.610Z,11.90
2019-04-06T19:19:41.363Z,11.90
2019-04-06T19:24:45.156Z,11.90
2019-04-06T19:29:48.990Z,11.90
2019-04-06T19:34:53.101Z,11.90
2019-04-06T19:39:56.947Z,11.90
2019-04-06T19:45:01.276Z,11.90
2019-04-06T19:50:08.294Z,11.90
2019-04-06T19:55:12.674Z,11.90
2019-04-06T20:00:16.912Z,11.90
2019-04-06T20:05:21.002Z,11.90
2019-04-06T20:10:24.832Z,11.90
2019-04-06T20:15:28.782Z,11.90
2019-04-06T20:20:33.035Z,11.90
2019-04-06T20:25:37.375Z,11.80
2019-04-06T20:30:41.374Z,11.60
2019-04-06T20:35:45.508Z,11.50
2019-04-06T20:40:49.442Z,11.50
2019-04-06T20:45:53.468Z,11.40
2019-04-06T20:50:57.295Z,11.50
2019-04-06T20:56:01.129Z,11.60
2019-04-06T21:01:05.264Z,11.60
2019-04-06T21:06:09.396Z,11.70
2019-04-06T21:11:13.858Z,11.60
2019-04-06T21:16:17.973Z,11.60
2019-04-06T21:21:22.077Z,11.60
2019-04-06T21:26:26.290Z,11.60
2019-04-06T21:31:30.655Z,11.70
2019-04-06T21:36:35.105Z,11.70
2019-04-06T21:41:39.612Z,11.70
2019-04-06T21:46:43.709Z,11.60
2019-04-06T21:51:48.021Z,11.70
2019-04-06T21:56:52.586Z,11.60
2019-04-06T22:01:56.902Z,11.60
2019-04-06T22:07:01.141Z,11.50
2019-04-06T22:12:04.990Z,11.40
2019-04-06T22:17:10.056Z,11.30
2019-04-06T22:22:14.501Z,11.10
2019-04-06T22:27:18.631Z,11.00
2019-04-06T22:32:22.456Z,10.90
2019-04-06T22:37:26.301Z,10.80
2019-04-06T22:42:30.483Z,10.70
2019-04-06T22:47:34.746Z,10.60
2019-04-06T22:52:38.686Z,10.60
2019-04-06T22:57:42.822Z,10.70
2019-04-06T23:03:04.631Z,10.70
2019-04-06T23:08:09.253Z,10.80
2019-04-06T23:13:13.354Z,10.80
2019-04-06T23:18:17.177Z,10.90
2019-04-06T23:23:21.004Z,11.00
2019-04-06T23:28:24.831Z,11.00
2019-04-06T23:33:29.034Z,11.10
2019-04-06T23:38:33.107Z,11.10
2019-04-06T23:43:37.244Z,11.10
2019-04-06T23:48:41.069Z,11.20
2019-04-06T23:53:45.506Z,11.10
2019-04-06T23:58:49.800Z,11.10
